LHSM 020515Z AUTO 25003KT 9999 ////// 09/09 Q1019
From batch tds/metars/production/2022/10/2/h05_m49_metars.cache.csv.gz
Observed at (about 1 hour ago)
Identifier LHSM
LHSM 020445Z AUTO 26003KT 9999 ////// 08/08 Q1019
From batch tds/metars/production/2022/10/2/h05_m24_metars.cache.csv.gz
Observed at (about 2 hours ago)
Identifier LHSM
LHSM 020415Z AUTO 00000KT 9999 ////// 09/09 Q1019
From batch tds/metars/production/2022/10/2/h04_m54_metars.cache.csv.gz
Observed at (about 2 hours ago)
Identifier LHSM
LHSM 020345Z AUTO VRB01KT 9999 ////// 10/10 Q1018
From batch tds/metars/production/2022/10/2/h04_m25_metars.cache.csv.gz
Observed at (about 3 hours ago)
Identifier LHSM
LHSM 020315Z AUTO 17001KT 9999 ////// 09/09 Q1018
From batch tds/metars/production/2022/10/2/h03_m55_metars.cache.csv.gz
Observed at (about 3 hours ago)
Identifier LHSM
LHSM 020245Z AUTO 04003KT 2400 BR ////// 10/10 Q1018
From batch tds/metars/production/2022/10/2/h03_m29_metars.cache.csv.gz
Observed at (about 4 hours ago)
Identifier LHSM
LHSM 020215Z AUTO VRB01KT 9999 ////// 10/10 Q1017
From batch tds/metars/production/2022/10/2/h02_m59_metars.cache.csv.gz
Observed at (about 4 hours ago)
Identifier LHSM
LHSM 020145Z AUTO VRB01KT 9999 ////// 10/10 Q1017
From batch tds/metars/production/2022/10/2/h02_m29_metars.cache.csv.gz
Observed at (about 5 hours ago)
Identifier LHSM
LHSM 020115Z AUTO 00000KT 9999 ////// 10/10 Q1017
From batch tds/metars/production/2022/10/2/h01_m58_metars.cache.csv.gz
Observed at (about 5 hours ago)
Identifier LHSM
LHSM 020045Z AUTO 26003KT 9999 ////// 11/10 Q1017
From batch tds/metars/production/2022/10/2/h01_m29_metars.cache.csv.gz
Observed at (about 6 hours ago)
Identifier LHSM
LHSM 020015Z AUTO 33004KT 9999 ////// 10/10 Q1017
From batch tds/metars/production/2022/10/2/h00_m59_metars.cache.csv.gz
Observed at (about 6 hours ago)
Identifier LHSM
LHSM 012345Z AUTO 32003KT 9999 ////// 12/11 Q1016
From batch tds/metars/production/2022/10/2/h00_m21_metars.cache.csv.gz
Observed at (about 7 hours ago)
Identifier LHSM
LHSM 012315Z AUTO 00000KT 9999 ////// 12/11 Q1016
From batch tds/metars/production/2022/10/1/h23_m51_metars.cache.csv.gz
Observed at (about 7 hours ago)
Identifier LHSM
LHSM 012245Z AUTO VRB02KT 9999 ////// 12/11 Q1015
From batch tds/metars/production/2022/10/1/h23_m23_metars.cache.csv.gz
Observed at (about 8 hours ago)
Identifier LHSM
LHSM 012215Z AUTO VRB01KT 9999 ////// 12/11 Q1015
From batch tds/metars/production/2022/10/1/h22_m59_metars.cache.csv.gz
Observed at (about 8 hours ago)
Identifier LHSM
LHSM 012145Z AUTO 00000KT 9999 ////// 12/11 Q1015
From batch tds/metars/production/2022/10/1/h22_m22_metars.cache.csv.gz
Observed at (about 9 hours ago)
Identifier LHSM
LHSM 012115Z AUTO 28002KT 9999 ////// 13/12 Q1015
From batch tds/metars/production/2022/10/1/h21_m52_metars.cache.csv.gz
Observed at (about 9 hours ago)
Identifier LHSM
LHSM 012045Z AUTO VRB02KT 9999 ////// 13/12 Q1014
From batch tds/metars/production/2022/10/1/h21_m29_metars.cache.csv.gz
Observed at (about 10 hours ago)
Identifier LHSM
LHSM 012015Z AUTO 00000KT 9999 ////// 14/12 Q1014
From batch tds/metars/production/2022/10/1/h20_m55_metars.cache.csv.gz
Observed at (about 10 hours ago)
Identifier LHSM
LHSM 011945Z AUTO 35006KT 9999 ////// 14/12 Q1014
From batch tds/metars/production/2022/10/1/h20_m27_metars.cache.csv.gz
Observed at (about 11 hours ago)
Identifier LHSM
LHSM 011915Z AUTO VRB02KT 9999 ////// 14/13 Q1013
From batch tds/metars/production/2022/10/1/h19_m51_metars.cache.csv.gz
Observed at (about 11 hours ago)
Identifier LHSM
LHSM 011845Z AUTO 35010KT 9999 ////// 14/13 Q1013
From batch tds/metars/production/2022/10/1/h19_m26_metars.cache.csv.gz
Observed at (about 12 hours ago)
Identifier LHSM
LHSM 011815Z AUTO 31005KT 270V330 9999 ////// 14/13 Q1012
From batch tds/metars/production/2022/10/1/h18_m51_metars.cache.csv.gz
Observed at (about 12 hours ago)
Identifier LHSM
LHSM 011745Z AUTO 31003KT 9999 ////// 14/13 Q1012
From batch tds/metars/production/2022/10/1/h18_m22_metars.cache.csv.gz
Observed at (about 13 hours ago)
Identifier LHSM
LHSM 011715Z AUTO 34004KT 300V010 9999 ////// 14/13 Q1012
From batch tds/metars/production/2022/10/1/h17_m58_metars.cache.csv.gz
Observed at (about 13 hours ago)
Identifier LHSM
LHSM 011645Z AUTO 31003KT 9999 ////// 15/13 Q1012
From batch tds/metars/production/2022/10/1/h17_m24_metars.cache.csv.gz
Observed at (about 14 hours ago)
Identifier LHSM
LHSM 011615Z AUTO 01004KT 320V040 9999 ////// 15/13 Q1012
From batch tds/metars/production/2022/10/1/h16_m56_metars.cache.csv.gz
Observed at (about 14 hours ago)
Identifier LHSM
LHSM 011545Z AUTO 35007KT 9999 ////// 16/14 Q1011
From batch tds/metars/production/2022/10/1/h16_m29_metars.cache.csv.gz
Observed at (about 15 hours ago)
Identifier LHSM
LHSM 011515Z AUTO 34010KT 9999 ////// 16/14 Q1011
From batch tds/metars/production/2022/10/1/h15_m59_metars.cache.csv.gz
Observed at (about 15 hours ago)
Identifier LHSM
LHSM 011445Z AUTO 33008KT 9999 ////// 16/15 Q1011
From batch tds/metars/production/2022/10/1/h15_m21_metars.cache.csv.gz
Observed at (about 16 hours ago)
Identifier LHSM
LHSM 011415Z AUTO 33010KT 9999 ////// 17/15 Q1011
From batch tds/metars/production/2022/10/1/h14_m58_metars.cache.csv.gz
Observed at (about 16 hours ago)
Identifier LHSM
LHSM 011345Z AUTO 34011KT 9999 ////// 18/16 Q1011
From batch tds/metars/production/2022/10/1/h14_m22_metars.cache.csv.gz
Observed at (about 17 hours ago)
Identifier LHSM
LHSM 011315Z AUTO 34008KT 9999 ////// 19/16 Q1011
From batch tds/metars/production/2022/10/1/h13_m52_metars.cache.csv.gz
Observed at (about 17 hours ago)
Identifier LHSM
LHSM 011245Z AUTO 35009KT 9999 ////// 19/17 Q1012
From batch tds/metars/production/2022/10/1/h13_m21_metars.cache.csv.gz
Observed at (about 18 hours ago)
Identifier LHSM
LHSM 011215Z AUTO 32008KT 280V360 9999 ////// 19/16 Q1012
From batch tds/metars/production/2022/10/1/h12_m54_metars.cache.csv.gz
Observed at (about 18 hours ago)
Identifier LHSM
LHSM 011145Z AUTO 25004KT 210V300 9999 ////// 20/16 Q1012
From batch tds/metars/production/2022/10/1/h12_m23_metars.cache.csv.gz
Observed at (about 19 hours ago)
Identifier LHSM
LHSM 011115Z AUTO 22008KT 180V250 9999 ////// 21/17 Q1012
From batch tds/metars/production/2022/10/1/h11_m59_metars.cache.csv.gz
Observed at (about 19 hours ago)
Identifier LHSM
LHSM 011045Z AUTO 21007KT 170V260 9999 ////// 20/16 Q1013
From batch tds/metars/production/2022/10/1/h11_m19_metars.cache.csv.gz
Observed at (about 20 hours ago)
Identifier LHSM
LHSM 011015Z AUTO 00000KT 9999 ////// 19/17 Q1013
From batch tds/metars/production/2022/10/1/h10_m54_metars.cache.csv.gz
Observed at (about 20 hours ago)
Identifier LHSM
LHSM 010945Z AUTO VRB01KT 9999 ////// 18/16 Q1014
From batch tds/metars/production/2022/10/1/h10_m25_metars.cache.csv.gz
Observed at (about 21 hours ago)
Identifier LHSM
LHSM 010915Z AUTO VRB03KT 9999 ////// 17/16 Q1014
From batch tds/metars/production/2022/10/1/h09_m50_metars.cache.csv.gz
Observed at (about 21 hours ago)
Identifier LHSM
LHSM 010845Z AUTO 18003KT 120V230 9999 ////// 16/15 Q1014
From batch tds/metars/production/2022/10/1/h09_m19_metars.cache.csv.gz
Observed at (about 22 hours ago)
Identifier LHSM
LHSM 010815Z AUTO VRB02KT 9999 ////// 16/15 Q1014
From batch tds/metars/production/2022/10/1/h08_m53_metars.cache.csv.gz
Observed at (about 22 hours ago)
Identifier LHSM
LHSM 010745Z AUTO VRB02KT 9999 ////// 15/15 Q1014
From batch tds/metars/production/2022/10/1/h08_m29_metars.cache.csv.gz
Observed at (about 23 hours ago)
Identifier LHSM
LHSM 010715Z AUTO VRB01KT 9999 ////// 15/14 Q1014
From batch tds/metars/production/2022/10/1/h07_m59_metars.cache.csv.gz
Observed at (about 23 hours ago)
Identifier LHSM
LHSM 010645Z AUTO 12003KT 080V150 9000 ////// 14/14 Q1014
From batch tds/metars/production/2022/10/1/h07_m29_metars.cache.csv.gz
Observed at (about 24 hours ago)
Identifier LHSM
talk